sensor_id;sensor_type;location;lat;lon;timestamp;temperature;humidity
2062;DHT22;11070;51.336;12.340;2023-09-30T00:01:18;17.40;99.90
2062;DHT22;11070;51.336;12.340;2023-09-30T00:03:44;17.30;99.90
2062;DHT22;11070;51.336;12.340;2023-09-30T00:06:10;17.30;99.90
2062;DHT22;11070;51.336;12.340;2023-09-30T00:08:36;17.40;99.90
2062;DHT22;11070;51.336;12.340;2023-09-30T00:11:05;17.40;99.90
2062;DHT22;11070;51.336;12.340;2023-09-30T00:13:31;17.30;99.90
2062;DHT22;11070;51.336;12.340;2023-09-30T00:15:57;17.30;99.90
2062;DHT22;11070;51.336;12.340;2023-09-30T00:18:23;17.30;99.90
2062;DHT22;11070;51.336;12.340;2023-09-30T00:20:48;17.30;99.90
2062;DHT22;11070;51.336;12.340;2023-09-30T00:23:14;17.20;99.90
2062;DHT22;11070;51.336;12.340;2023-09-30T00:25:40;17.10;99.90
2062;DHT22;11070;51.336;12.340;2023-09-30T00:28:07;17.10;99.90
2062;DHT22;11070;51.336;12.340;2023-09-30T00:30:33;17.00;99.90
2062;DHT22;11070;51.336;12.340;2023-09-30T00:32:59;17.00;99.90
2062;DHT22;11070;51.336;12.340;2023-09-30T00:35:25;16.90;99.90
2062;DHT22;11070;51.336;12.340;2023-09-30T00:37:51;16.90;99.90
2062;DHT22;11070;51.336;12.340;2023-09-30T00:40:16;16.80;99.90
2062;DHT22;11070;51.336;12.340;2023-09-30T00:42:42;16.70;99.90
2062;DHT22;11070;51.336;12.340;2023-09-30T00:45:08;16.80;99.90
2062;DHT22;11070;51.336;12.340;2023-09-30T00:47:36;16.80;99.90
2062;DHT22;11070;51.336;12.340;2023-09-30T00:50:03;16.70;99.90
2062;DHT22;11070;51.336;12.340;2023-09-30T00:52:31;16.70;99.90
2062;DHT22;11070;51.336;12.340;2023-09-30T00:54:57;16.60;99.90
2062;DHT22;11070;51.336;12.340;2023-09-30T00:57:24;16.50;99.90
2062;DHT22;11070;51.336;12.340;2023-09-30T00:59:51;16.60;99.90
2062;DHT22;11070;51.336;12.340;2023-09-30T01:02:20;16.50;99.90
2062;DHT22;11070;51.336;12.340;2023-09-30T01:04:48;16.50;99.90
2062;DHT22;11070;51.336;12.340;2023-09-30T01:07:13;16.40;99.90
2062;DHT22;11070;51.336;12.340;2023-09-30T01:09:39;16.40;99.90
2062;DHT22;11070;51.336;12.340;2023-09-30T01:12:05;16.40;99.90
2062;DHT22;11070;51.336;12.340;2023-09-30T01:14:33;16.30;99.90
2062;DHT22;11070;51.336;12.340;2023-09-30T01:17:08;16.30;99.90
2062;DHT22;11070;51.336;12.340;2023-09-30T01:19:40;16.20;99.90
2062;DHT22;11070;51.336;12.340;2023-09-30T01:22:06;16.20;99.90
2062;DHT22;11070;51.336;12.340;2023-09-30T01:24:42;16.20;99.90
2062;DHT22;11070;51.336;12.340;2023-09-30T01:27:11;16.20;99.90
2062;DHT22;11070;51.336;12.340;2023-09-30T01:29:38;16.20;99.90
2062;DHT22;11070;51.336;12.340;2023-09-30T01:32:07;16.20;99.90
2062;DHT22;11070;51.336;12.340;2023-09-30T01:34:34;16.10;99.90
2062;DHT22;11070;51.336;12.340;2023-09-30T01:37:00;16.10;99.90
2062;DHT22;11070;51.336;12.340;2023-09-30T01:39:26;16.20;99.90
2062;DHT22;11070;51.336;12.340;2023-09-30T01:41:51;16.10;99.90
2062;DHT22;11070;51.336;12.340;2023-09-30T01:44:17;16.10;99.90
2062;DHT22;11070;51.336;12.340;2023-09-30T01:46:43;16.10;99.90
2062;DHT22;11070;51.336;12.340;2023-09-30T01:49:09;16.00;99.90
2062;DHT22;11070;51.336;12.340;2023-09-30T01:51:35;16.00;99.90
2062;DHT22;11070;51.336;12.340;2023-09-30T01:54:01;15.90;99.90
2062;DHT22;11070;51.336;12.340;2023-09-30T01:56:26;15.80;99.90
2062;DHT22;11070;51.336;12.340;2023-09-30T01:58:52;15.70;99.90
2062;DHT22;11070;51.336;12.340;2023-09-30T02:01:18;15.70;99.90
2062;DHT22;11070;51.336;12.340;2023-09-30T02:03:43;15.60;99.90
2062;DHT22;11070;51.336;12.340;2023-09-30T02:06:09;15.50;99.90
2062;DHT22;11070;51.336;12.340;2023-09-30T02:08:35;15.50;99.90
2062;DHT22;11070;51.336;12.340;2023-09-30T02:11:02;15.40;99.90
2062;DHT22;11070;51.336;12.340;2023-09-30T02:13:29;15.40;99.90
2062;DHT22;11070;51.336;12.340;2023-09-30T02:15:55;15.40;99.90
2062;DHT22;11070;51.336;12.340;2023-09-30T02:18:23;15.40;99.90
2062;DHT22;11070;51.336;12.340;2023-09-30T02:20:49;15.40;99.90
2062;DHT22;11070;51.336;12.340;2023-09-30T02:23:15;15.30;99.90
2062;DHT22;11070;51.336;12.340;2023-09-30T02:25:42;15.20;99.90
2062;DHT22;11070;51.336;12.340;2023-09-30T02:28:09;15.10;99.90
2062;DHT22;11070;51.336;12.340;2023-09-30T02:30:35;15.10;99.90
2062;DHT22;11070;51.336;12.340;2023-09-30T02:33:02;15.10;99.90
2062;DHT22;11070;51.336;12.340;2023-09-30T02:35:28;15.10;99.90
2062;DHT22;11070;51.336;12.340;2023-09-30T02:37:54;15.10;99.90
2062;DHT22;11070;51.336;12.340;2023-09-30T02:40:20;15.20;99.90
2062;DHT22;11070;51.336;12.340;2023-09-30T02:42:46;15.20;99.90
2062;DHT22;11070;51.336;12.340;2023-09-30T02:45:16;15.30;99.90
2062;DHT22;11070;51.336;12.340;2023-09-30T02:47:45;15.20;99.90
2062;DHT22;11070;51.336;12.340;2023-09-30T02:50:12;15.30;99.90
2062;DHT22;11070;51.336;12.340;2023-09-30T02:52:38;15.20;99.90
2062;DHT22;11070;51.336;12.340;2023-09-30T02:55:11;15.30;99.90
2062;DHT22;11070;51.336;12.340;2023-09-30T02:57:37;15.30;99.90
2062;DHT22;11070;51.336;12.340;2023-09-30T03:00:04;15.30;99.90
2062;DHT22;11070;51.336;12.340;2023-09-30T03:02:54;15.30;99.90
2062;DHT22;11070;51.336;12.340;2023-09-30T03:05:20;15.30;99.90
2062;DHT22;11070;51.336;12.340;2023-09-30T03:07:46;15.20;99.90
2062;DHT22;11070;51.336;12.340;2023-09-30T03:10:12;15.20;99.90
2062;DHT22;11070;51.336;12.340;2023-09-30T03:12:39;15.10;99.90
2062;DHT22;11070;51.336;12.340;2023-09-30T03:15:05;15.00;99.90
2062;DHT22;11070;51.336;12.340;2023-09-30T03:17:32;14.90;99.90
2062;DHT22;11070;51.336;12.340;2023-09-30T03:19:58;14.80;99.90
2062;DHT22;11070;51.336;12.340;2023-09-30T03:22:27;14.70;99.90
2062;DHT22;11070;51.336;12.340;2023-09-30T03:24:54;14.60;99.90
2062;DHT22;11070;51.336;12.340;2023-09-30T03:27:22;14.50;99.90
2062;DHT22;11070;51.336;12.340;2023-09-30T03:29:47;14.40;99.90
2062;DHT22;11070;51.336;12.340;2023-09-30T03:32:13;14.30;99.90
2062;DHT22;11070;51.336;12.340;2023-09-30T03:34:39;14.20;99.90
2062;DHT22;11070;51.336;12.340;2023-09-30T03:37:10;14.10;99.90
2062;DHT22;11070;51.336;12.340;2023-09-30T03:39:35;14.10;99.90
2062;DHT22;11070;51.336;12.340;2023-09-30T03:42:01;14.00;99.90
2062;DHT22;11070;51.336;12.340;2023-09-30T03:44:28;14.00;99.90
2062;DHT22;11070;51.336;12.340;2023-09-30T03:46:54;14.00;99.90
2062;DHT22;11070;51.336;12.340;2023-09-30T03:49:20;13.90;99.90
2062;DHT22;11070;51.336;12.340;2023-09-30T03:51:46;13.90;99.90
2062;DHT22;11070;51.336;12.340;2023-09-30T03:54:12;13.90;99.90
2062;DHT22;11070;51.336;12.340;2023-09-30T03:56:38;13.90;99.90
2062;DHT22;11070;51.336;12.340;2023-09-30T03:59:07;13.80;99.90
2062;DHT22;11070;51.336;12.340;2023-09-30T04:01:34;13.70;99.90
2062;DHT22;11070;51.336;12.340;2023-09-30T04:04:00;13.70;99.90
2062;DHT22;11070;51.336;12.340;2023-09-30T04:06:27;13.70;99.90
2062;DHT22;11070;51.336;12.340;2023-09-30T04:08:54;13.60;99.90
2062;DHT22;11070;51.336;12.340;2023-09-30T04:11:20;13.60;99.90
2062;DHT22;11070;51.336;12.340;2023-09-30T04:13:46;13.60;99.90
2062;DHT22;11070;51.336;12.340;2023-09-30T04:16:11;13.50;99.90
2062;DHT22;11070;51.336;12.340;2023-09-30T04:18:37;13.50;99.90
2062;DHT22;11070;51.336;12.340;2023-09-30T04:21:05;13.50;99.90
2062;DHT22;11070;51.336;12.340;2023-09-30T04:23:33;13.50;99.90
2062;DHT22;11070;51.336;12.340;2023-09-30T04:25:59;13.50;99.90
2062;DHT22;11070;51.336;12.340;2023-09-30T04:28:24;13.40;99.90
2062;DHT22;11070;51.336;12.340;2023-09-30T04:30:50;13.40;99.90
2062;DHT22;11070;51.336;12.340;2023-09-30T04:33:17;13.40;99.90
2062;DHT22;11070;51.336;12.340;2023-09-30T04:35:50;13.30;99.90
2062;DHT22;11070;51.336;12.340;2023-09-30T04:38:15;13.30;99.90
2062;DHT22;11070;51.336;12.340;2023-09-30T04:40:41;13.30;99.90
2062;DHT22;11070;51.336;12.340;2023-09-30T04:43:10;13.30;99.90
2062;DHT22;11070;51.336;12.340;2023-09-30T04:45:36;13.30;99.90
2062;DHT22;11070;51.336;12.340;2023-09-30T04:48:02;13.30;99.90
2062;DHT22;11070;51.336;12.340;2023-09-30T04:50:28;13.30;99.90
2062;DHT22;11070;51.336;12.340;2023-09-30T04:52:56;13.30;99.90
2062;DHT22;11070;51.336;12.340;2023-09-30T04:55:23;13.30;99.90
2062;DHT22;11070;51.336;12.340;2023-09-30T04:57:49;13.20;99.90
2062;DHT22;11070;51.336;12.340;2023-09-30T05:00:16;13.30;99.90
2062;DHT22;11070;51.336;12.340;2023-09-30T05:02:47;13.20;99.90
2062;DHT22;11070;51.336;12.340;2023-09-30T05:05:13;13.20;99.90
2062;DHT22;11070;51.336;12.340;2023-09-30T05:07:40;13.20;99.90
2062;DHT22;11070;51.336;12.340;2023-09-30T05:10:07;13.20;99.90
2062;DHT22;11070;51.336;12.340;2023-09-30T05:12:37;13.20;99.90
2062;DHT22;11070;51.336;12.340;2023-09-30T05:15:04;13.20;99.90
2062;DHT22;11070;51.336;12.340;2023-09-30T05:17:31;13.20;99.90
2062;DHT22;11070;51.336;12.340;2023-09-30T05:19:57;13.30;99.90
2062;DHT22;11070;51.336;12.340;2023-09-30T05:22:23;13.30;99.90
2062;DHT22;11070;51.336;12.340;2023-09-30T05:24:53;13.30;99.90
2062;DHT22;11070;51.336;12.340;2023-09-30T05:27:19;13.30;99.90
2062;DHT22;11070;51.336;12.340;2023-09-30T05:29:45;13.40;99.90
2062;DHT22;11070;51.336;12.340;2023-09-30T05:32:11;13.40;99.90
2062;DHT22;11070;51.336;12.340;2023-09-30T05:34:38;13.40;99.90
2062;DHT22;11070;51.336;12.340;2023-09-30T05:37:04;13.30;99.90
2062;DHT22;11070;51.336;12.340;2023-09-30T05:39:30;13.30;99.90
2062;DHT22;11070;51.336;12.340;2023-09-30T05:41:57;13.40;99.90
2062;DHT22;11070;51.336;12.340;2023-09-30T05:44:23;13.30;99.90
2062;DHT22;11070;51.336;12.340;2023-09-30T05:46:49;13.30;99.90
2062;DHT22;11070;51.336;12.340;2023-09-30T05:49:15;13.30;99.90
2062;DHT22;11070;51.336;12.340;2023-09-30T05:51:41;13.30;99.90
2062;DHT22;11070;51.336;12.340;2023-09-30T05:54:07;13.30;99.90
2062;DHT22;11070;51.336;12.340;2023-09-30T05:56:37;13.20;99.90
2062;DHT22;11070;51.336;12.340;2023-09-30T05:59:07;13.20;99.90
2062;DHT22;11070;51.336;12.340;2023-09-30T06:01:32;13.20;99.90
2062;DHT22;11070;51.336;12.340;2023-09-30T06:03:59;13.20;99.90
2062;DHT22;11070;51.336;12.340;2023-09-30T06:06:28;13.20;99.90
2062;DHT22;11070;51.336;12.340;2023-09-30T06:08:56;13.20;99.90
2062;DHT22;11070;51.336;12.340;2023-09-30T06:11:24;13.20;99.90
2062;DHT22;11070;51.336;12.340;2023-09-30T06:13:57;13.30;99.90
2062;DHT22;11070;51.336;12.340;2023-09-30T06:16:26;13.40;99.90
2062;DHT22;11070;51.336;12.340;2023-09-30T06:18:53;13.60;99.90
2062;DHT22;11070;51.336;12.340;2023-09-30T06:21:23;13.90;99.90
2062;DHT22;11070;51.336;12.340;2023-09-30T06:23:50;14.70;99.90
2062;DHT22;11070;51.336;12.340;2023-09-30T06:26:18;15.80;99.90
2062;DHT22;11070;51.336;12.340;2023-09-30T06:28:46;16.60;99.90
2062;DHT22;11070;51.336;12.340;2023-09-30T06:31:13;17.40;99.90
2062;DHT22;11070;51.336;12.340;2023-09-30T06:33:39;17.90;99.90
2062;DHT22;11070;51.336;12.340;2023-09-30T06:36:12;17.70;99.90
2062;DHT22;11070;51.336;12.340;2023-09-30T06:38:40;16.70;99.90
2062;DHT22;11070;51.336;12.340;2023-09-30T06:41:07;16.20;99.90
2062;DHT22;11070;51.336;12.340;2023-09-30T06:43:33;15.80;99.90
2062;DHT22;11070;51.336;12.340;2023-09-30T06:46:06;15.40;99.90
2062;DHT22;11070;51.336;12.340;2023-09-30T06:48:34;15.30;99.90
2062;DHT22;11070;51.336;12.340;2023-09-30T06:51:00;15.30;99.90
2062;DHT22;11070;51.336;12.340;2023-09-30T06:53:27;15.20;99.90
2062;DHT22;11070;51.336;12.340;2023-09-30T06:55:53;15.20;99.90
2062;DHT22;11070;51.336;12.340;2023-09-30T06:58:18;15.20;99.90
2062;DHT22;11070;51.336;12.340;2023-09-30T07:00:47;15.30;99.90
2062;DHT22;11070;51.336;12.340;2023-09-30T07:03:15;15.20;99.90
2062;DHT22;11070;51.336;12.340;2023-09-30T07:05:40;15.10;99.90
2062;DHT22;11070;51.336;12.340;2023-09-30T07:08:06;15.00;99.90
2062;DHT22;11070;51.336;12.340;2023-09-30T07:10:32;15.00;99.90
2062;DHT22;11070;51.336;12.340;2023-09-30T07:12:58;15.10;99.90
2062;DHT22;11070;51.336;12.340;2023-09-30T07:15:23;15.10;99.90
2062;DHT22;11070;51.336;12.340;2023-09-30T07:17:49;15.10;99.90
2062;DHT22;11070;51.336;12.340;2023-09-30T07:20:15;15.00;99.90
2062;DHT22;11070;51.336;12.340;2023-09-30T07:22:41;15.00;99.90
2062;DHT22;11070;51.336;12.340;2023-09-30T07:25:07;15.00;99.90
2062;DHT22;11070;51.336;12.340;2023-09-30T07:27:34;15.10;99.90
2062;DHT22;11070;51.336;12.340;2023-09-30T07:29:59;15.20;99.90
2062;DHT22;11070;51.336;12.340;2023-09-30T07:32:25;15.30;99.90
2062;DHT22;11070;51.336;12.340;2023-09-30T07:34:52;15.40;99.90
2062;DHT22;11070;51.336;12.340;2023-09-30T07:37:17;15.50;99.90
2062;DHT22;11070;51.336;12.340;2023-09-30T07:39:44;15.70;99.90
2062;DHT22;11070;51.336;12.340;2023-09-30T07:42:10;15.90;99.90
2062;DHT22;11070;51.336;12.340;2023-09-30T07:44:36;16.10;99.90
2062;DHT22;11070;51.336;12.340;2023-09-30T07:47:05;16.50;99.90
2062;DHT22;11070;51.336;12.340;2023-09-30T07:49:34;17.00;99.90
2062;DHT22;11070;51.336;12.340;2023-09-30T07:52:00;17.60;99.90
2062;DHT22;11070;51.336;12.340;2023-09-30T07:54:26;17.90;99.90
2062;DHT22;11070;51.336;12.340;2023-09-30T07:56:52;17.90;99.90
2062;DHT22;11070;51.336;12.340;2023-09-30T07:59:17;17.70;99.90
2062;DHT22;11070;51.336;12.340;2023-09-30T08:01:43;17.40;99.90
2062;DHT22;11070;51.336;12.340;2023-09-30T08:04:09;17.20;99.90
2062;DHT22;11070;51.336;12.340;2023-09-30T08:06:35;17.10;99.90
2062;DHT22;11070;51.336;12.340;2023-09-30T08:09:00;16.90;99.90
2062;DHT22;11070;51.336;12.340;2023-09-30T08:11:28;16.80;99.90
2062;DHT22;11070;51.336;12.340;2023-09-30T08:13:56;16.90;99.90
2062;DHT22;11070;51.336;12.340;2023-09-30T08:16:22;17.20;99.90
2062;DHT22;11070;51.336;12.340;2023-09-30T08:18:47;17.70;99.90
2062;DHT22;11070;51.336;12.340;2023-09-30T08:21:14;18.10;99.90
2062;DHT22;11070;51.336;12.340;2023-09-30T08:23:39;18.30;99.90
2062;DHT22;11070;51.336;12.340;2023-09-30T08:26:05;19.30;99.90
2062;DHT22;11070;51.336;12.340;2023-09-30T08:28:32;20.90;99.90
2062;DHT22;11070;51.336;12.340;2023-09-30T08:31:07;22.60;97.50
2062;DHT22;11070;51.336;12.340;2023-09-30T08:33:33;24.00;86.80
2062;DHT22;11070;51.336;12.340;2023-09-30T08:36:02;23.70;79.80
2062;DHT22;11070;51.336;12.340;2023-09-30T08:38:36;23.60;78.90
2062;DHT22;11070;51.336;12.340;2023-09-30T08:41:02;24.30;77.00
2062;DHT22;11070;51.336;12.340;2023-09-30T08:43:28;25.40;71.40
2062;DHT22;11070;51.336;12.340;2023-09-30T08:45:56;26.00;67.20
2062;DHT22;11070;51.336;12.340;2023-09-30T08:48:23;26.30;63.30
2062;DHT22;11070;51.336;12.340;2023-09-30T08:50:51;26.00;63.10
2062;DHT22;11070;51.336;12.340;2023-09-30T08:53:18;26.30;61.30
2062;DHT22;11070;51.336;12.340;2023-09-30T08:55:46;27.40;59.30
2062;DHT22;11070;51.336;12.340;2023-09-30T08:58:15;29.00;55.60
2062;DHT22;11070;51.336;12.340;2023-09-30T09:00:42;30.40;53.00
2062;DHT22;11070;51.336;12.340;2023-09-30T09:03:08;30.80;50.30
2062;DHT22;11070;51.336;12.340;2023-09-30T09:05:34;30.40;49.10
2062;DHT22;11070;51.336;12.340;2023-09-30T09:08:00;28.70;50.70
2062;DHT22;11070;51.336;12.340;2023-09-30T09:10:25;28.00;52.70
2062;DHT22;11070;51.336;12.340;2023-09-30T09:12:58;27.60;53.10
2062;DHT22;11070;51.336;12.340;2023-09-30T09:15:26;28.00;53.20
2062;DHT22;11070;51.336;12.340;2023-09-30T09:17:52;29.40;51.50
2062;DHT22;11070;51.336;12.340;2023-09-30T09:20:22;30.80;48.80
2062;DHT22;11070;51.336;12.340;2023-09-30T09:22:51;30.50;48.90
2062;DHT22;11070;51.336;12.340;2023-09-30T09:25:19;29.50;49.10
2062;DHT22;11070;51.336;12.340;2023-09-30T09:27:45;28.20;51.60
2062;DHT22;11070;51.336;12.340;2023-09-30T09:33:05;26.90;54.10
2062;DHT22;11070;51.336;12.340;2023-09-30T09:35:32;27.60;53.40
2062;DHT22;11070;51.336;12.340;2023-09-30T09:38:00;29.00;51.30
2062;DHT22;11070;51.336;12.340;2023-09-30T09:40:34;29.50;49.40
2062;DHT22;11070;51.336;12.340;2023-09-30T09:43:01;29.00;50.20
2062;DHT22;11070;51.336;12.340;2023-09-30T09:45:34;28.70;50.00
2062;DHT22;11070;51.336;12.340;2023-09-30T09:48:00;27.60;51.50
2062;DHT22;11070;51.336;12.340;2023-09-30T09:50:26;28.00;51.10
2062;DHT22;11070;51.336;12.340;2023-09-30T09:52:53;29.80;49.10
2062;DHT22;11070;51.336;12.340;2023-09-30T09:55:22;32.00;51.60
2062;DHT22;11070;51.336;12.340;2023-09-30T09:57:49;33.70;42.20
2062;DHT22;11070;51.336;12.340;2023-09-30T10:00:19;33.60;41.30
2062;DHT22;11070;51.336;12.340;2023-09-30T10:02:46;32.30;41.00
2062;DHT22;11070;51.336;12.340;2023-09-30T10:05:13;31.40;42.80
2062;DHT22;11070;51.336;12.340;2023-09-30T10:07:52;31.80;43.40
2062;DHT22;11070;51.336;12.340;2023-09-30T10:10:20;33.30;40.40
2062;DHT22;11070;51.336;12.340;2023-09-30T10:12:46;34.10;40.00
2062;DHT22;11070;51.336;12.340;2023-09-30T10:18:06;35.20;38.30
2062;DHT22;11070;51.336;12.340;2023-09-30T10:20:37;33.50;40.60
2062;DHT22;11070;51.336;12.340;2023-09-30T10:23:28;34.30;40.10
2062;DHT22;11070;51.336;12.340;2023-09-30T10:28:41;33.30;39.50
2062;DHT22;11070;51.336;12.340;2023-09-30T10:31:16;32.70;39.80
2062;DHT22;11070;51.336;12.340;2023-09-30T10:36:35;33.60;38.80
2062;DHT22;11070;51.336;12.340;2023-09-30T10:39:03;31.60;40.80
2062;DHT22;11070;51.336;12.340;2023-09-30T10:41:56;29.40;42.20
2062;DHT22;11070;51.336;12.340;2023-09-30T10:46:59;28.90;42.50
2062;DHT22;11070;51.336;12.340;2023-09-30T10:51:55;29.20;41.30
2062;DHT22;11070;51.336;12.340;2023-09-30T10:54:26;30.50;41.50
2062;DHT22;11070;51.336;12.340;2023-09-30T10:56:53;32.20;39.50
2062;DHT22;11070;51.336;12.340;2023-09-30T10:59:23;31.50;38.90
2062;DHT22;11070;51.336;12.340;2023-09-30T11:01:50;31.50;38.70
2062;DHT22;11070;51.336;12.340;2023-09-30T11:04:17;32.90;37.10
2062;DHT22;11070;51.336;12.340;2023-09-30T11:06:44;33.50;35.20
2062;DHT22;11070;51.336;12.340;2023-09-30T11:09:18;33.10;37.70
2062;DHT22;11070;51.336;12.340;2023-09-30T11:11:49;33.40;36.30
2062;DHT22;11070;51.336;12.340;2023-09-30T11:14:29;31.50;38.90
2062;DHT22;11070;51.336;12.340;2023-09-30T11:16:57;30.20;40.50
2062;DHT22;11070;51.336;12.340;2023-09-30T11:19:23;30.10;41.20
2062;DHT22;11070;51.336;12.340;2023-09-30T11:21:51;29.70;41.40
2062;DHT22;11070;51.336;12.340;2023-09-30T11:24:17;29.60;42.70
2062;DHT22;11070;51.336;12.340;2023-09-30T11:26:44;30.70;40.00
2062;DHT22;11070;51.336;12.340;2023-09-30T11:29:14;31.40;37.70
2062;DHT22;11070;51.336;12.340;2023-09-30T11:31:43;32.90;36.80
2062;DHT22;11070;51.336;12.340;2023-09-30T11:34:09;34.60;34.50
2062;DHT22;11070;51.336;12.340;2023-09-30T11:36:38;36.30;33.20
2062;DHT22;11070;51.336;12.340;2023-09-30T11:39:05;34.70;32.70
2062;DHT22;11070;51.336;12.340;2023-09-30T11:41:35;33.00;35.20
2062;DHT22;11070;51.336;12.340;2023-09-30T11:44:06;33.30;34.70
2062;DHT22;11070;51.336;12.340;2023-09-30T11:46:54;33.00;35.10
2062;DHT22;11070;51.336;12.340;2023-09-30T11:49:30;31.30;36.30
2062;DHT22;11070;51.336;12.340;2023-09-30T11:52:01;30.40;38.60
2062;DHT22;11070;51.336;12.340;2023-09-30T11:54:36;27.40;40.70
2062;DHT22;11070;51.336;12.340;2023-09-30T11:57:09;27.70;42.30
2062;DHT22;11070;51.336;12.340;2023-09-30T11:59:38;28.50;40.50
2062;DHT22;11070;51.336;12.340;2023-09-30T12:02:11;28.60;39.90
2062;DHT22;11070;51.336;12.340;2023-09-30T12:04:38;27.60;40.50
2062;DHT22;11070;51.336;12.340;2023-09-30T12:07:04;26.50;42.80
2062;DHT22;11070;51.336;12.340;2023-09-30T12:09:32;27.40;42.50
2062;DHT22;11070;51.336;12.340;2023-09-30T12:12:00;29.00;40.80
2062;DHT22;11070;51.336;12.340;2023-09-30T12:14:26;30.10;38.60
2062;DHT22;11070;51.336;12.340;2023-09-30T12:16:55;29.50;38.30
2062;DHT22;11070;51.336;12.340;2023-09-30T12:19:20;28.20;41.10
2062;DHT22;11070;51.336;12.340;2023-09-30T12:21:47;27.20;42.60
2062;DHT22;11070;51.336;12.340;2023-09-30T12:24:17;28.30;42.60
2062;DHT22;11070;51.336;12.340;2023-09-30T12:26:48;31.10;38.60
2062;DHT22;11070;51.336;12.340;2023-09-30T12:29:21;32.90;36.50
2062;DHT22;11070;51.336;12.340;2023-09-30T12:31:51;31.90;35.70
2062;DHT22;11070;51.336;12.340;2023-09-30T12:34:17;29.50;38.90
2062;DHT22;11070;51.336;12.340;2023-09-30T12:36:43;30.00;39.70
2062;DHT22;11070;51.336;12.340;2023-09-30T12:39:10;31.50;38.20
2062;DHT22;11070;51.336;12.340;2023-09-30T12:41:40;31.80;36.80
2062;DHT22;11070;51.336;12.340;2023-09-30T12:44:09;29.50;38.90
2062;DHT22;11070;51.336;12.340;2023-09-30T12:46:36;29.60;39.90
2062;DHT22;11070;51.336;12.340;2023-09-30T12:49:08;30.10;38.80
2062;DHT22;11070;51.336;12.340;2023-09-30T12:51:35;30.00;38.80
2062;DHT22;11070;51.336;12.340;2023-09-30T12:54:02;29.00;39.30
2062;DHT22;11070;51.336;12.340;2023-09-30T12:56:28;27.60;41.10
2062;DHT22;11070;51.336;12.340;2023-09-30T12:58:57;28.00;41.80
2062;DHT22;11070;51.336;12.340;2023-09-30T13:01:23;29.00;40.70
2062;DHT22;11070;51.336;12.340;2023-09-30T13:03:49;30.80;39.20
2062;DHT22;11070;51.336;12.340;2023-09-30T13:06:15;29.50;38.30
2062;DHT22;11070;51.336;12.340;2023-09-30T13:08:42;29.80;38.50
2062;DHT22;11070;51.336;12.340;2023-09-30T13:11:08;29.60;38.70
2062;DHT22;11070;51.336;12.340;2023-09-30T13:13:34;29.00;39.50
2062;DHT22;11070;51.336;12.340;2023-09-30T13:16:01;28.80;40.40
2062;DHT22;11070;51.336;12.340;2023-09-30T13:18:27;28.50;40.10
2062;DHT22;11070;51.336;12.340;2023-09-30T13:20:53;27.50;41.70
2062;DHT22;11070;51.336;12.340;2023-09-30T13:23:19;27.10;42.10
2062;DHT22;11070;51.336;12.340;2023-09-30T13:25:45;26.50;43.10
2062;DHT22;11070;51.336;12.340;2023-09-30T13:28:11;26.50;43.50
2062;DHT22;11070;51.336;12.340;2023-09-30T13:30:37;26.60;43.50
2062;DHT22;11070;51.336;12.340;2023-09-30T13:33:03;27.00;42.80
2062;DHT22;11070;51.336;12.340;2023-09-30T13:35:29;26.00;42.50
2062;DHT22;11070;51.336;12.340;2023-09-30T13:37:55;25.60;43.50
2062;DHT22;11070;51.336;12.340;2023-09-30T13:40:20;25.90;43.80
2062;DHT22;11070;51.336;12.340;2023-09-30T13:42:46;25.30;44.00
2062;DHT22;11070;51.336;12.340;2023-09-30T13:45:12;24.60;45.80
2062;DHT22;11070;51.336;12.340;2023-09-30T13:47:38;25.60;45.30
2062;DHT22;11070;51.336;12.340;2023-09-30T13:50:04;26.90;42.80
2062;DHT22;11070;51.336;12.340;2023-09-30T13:52:33;25.30;43.90
2062;DHT22;11070;51.336;12.340;2023-09-30T13:54:59;24.90;45.20
2062;DHT22;11070;51.336;12.340;2023-09-30T13:57:25;25.30;44.70
2062;DHT22;11070;51.336;12.340;2023-09-30T13:59:51;25.40;44.10
2062;DHT22;11070;51.336;12.340;2023-09-30T14:02:16;25.40;44.50
2062;DHT22;11070;51.336;12.340;2023-09-30T14:04:42;25.80;44.90
2062;DHT22;11070;51.336;12.340;2023-09-30T14:07:08;27.60;43.60
2062;DHT22;11070;51.336;12.340;2023-09-30T14:09:33;28.80;40.50
2062;DHT22;11070;51.336;12.340;2023-09-30T14:11:59;29.30;39.50
2062;DHT22;11070;51.336;12.340;2023-09-30T14:14:25;29.00;37.90
2062;DHT22;11070;51.336;12.340;2023-09-30T14:16:52;27.70;39.70
2062;DHT22;11070;51.336;12.340;2023-09-30T14:19:18;27.70;40.70
2062;DHT22;11070;51.336;12.340;2023-09-30T14:21:43;27.50;40.70
2062;DHT22;11070;51.336;12.340;2023-09-30T14:24:11;27.80;41.00
2062;DHT22;11070;51.336;12.340;2023-09-30T14:26:36;28.00;40.50
2062;DHT22;11070;51.336;12.340;2023-09-30T14:29:03;28.30;40.50
2062;DHT22;11070;51.336;12.340;2023-09-30T14:31:29;28.90;39.80
2062;DHT22;11070;51.336;12.340;2023-09-30T14:33:55;29.80;38.70
2062;DHT22;11070;51.336;12.340;2023-09-30T14:36:20;29.10;39.00
2062;DHT22;11070;51.336;12.340;2023-09-30T14:38:48;28.90;38.80
2062;DHT22;11070;51.336;12.340;2023-09-30T14:41:15;28.40;39.40
2062;DHT22;11070;51.336;12.340;2023-09-30T14:43:41;27.80;39.50
2062;DHT22;11070;51.336;12.340;2023-09-30T14:46:06;27.70;40.20
2062;DHT22;11070;51.336;12.340;2023-09-30T14:48:33;27.60;39.50
2062;DHT22;11070;51.336;12.340;2023-09-30T14:50:59;25.70;42.00
2062;DHT22;11070;51.336;12.340;2023-09-30T14:53:25;25.10;44.00
2062;DHT22;11070;51.336;12.340;2023-09-30T14:55:51;25.50;43.50
2062;DHT22;11070;51.336;12.340;2023-09-30T14:58:17;25.80;42.50
2062;DHT22;11070;51.336;12.340;2023-09-30T15:00:43;25.90;42.10
2062;DHT22;11070;51.336;12.340;2023-09-30T15:03:08;25.60;42.60
2062;DHT22;11070;51.336;12.340;2023-09-30T15:05:34;25.70;43.20
2062;DHT22;11070;51.336;12.340;2023-09-30T15:08:00;26.20;42.60
2062;DHT22;11070;51.336;12.340;2023-09-30T15:10:29;26.40;41.90
2062;DHT22;11070;51.336;12.340;2023-09-30T15:12:55;26.00;41.80
2062;DHT22;11070;51.336;12.340;2023-09-30T15:15:23;24.80;43.90
2062;DHT22;11070;51.336;12.340;2023-09-30T15:17:48;24.60;44.50
2062;DHT22;11070;51.336;12.340;2023-09-30T15:20:14;24.60;44.50
2062;DHT22;11070;51.336;12.340;2023-09-30T15:22:40;24.50;44.90
2062;DHT22;11070;51.336;12.340;2023-09-30T15:25:06;24.10;45.10
2062;DHT22;11070;51.336;12.340;2023-09-30T15:27:32;23.90;46.10
2062;DHT22;11070;51.336;12.340;2023-09-30T15:30:00;24.10;45.50
2062;DHT22;11070;51.336;12.340;2023-09-30T15:32:26;24.20;45.70
2062;DHT22;11070;51.336;12.340;2023-09-30T15:34:53;24.30;45.30
2062;DHT22;11070;51.336;12.340;2023-09-30T15:37:18;23.90;45.80
2062;DHT22;11070;51.336;12.340;2023-09-30T15:39:44;24.20;46.10
2062;DHT22;11070;51.336;12.340;2023-09-30T15:42:12;24.30;45.80
2062;DHT22;11070;51.336;12.340;2023-09-30T15:44:38;24.00;46.10
2062;DHT22;11070;51.336;12.340;2023-09-30T15:47:08;23.00;46.80